Aérodrome :
LOGIN :

S'inscrire | Disclaimer

   EN    FR    IT 

 










Légende :    VFR   VFR Marginal   IFR   IFR Intensif   IFR Très Intensif
Visi : 
Plafond : 
>= 8 km
>= 3000ft
5 à 8 km
1000 à 3000 ft
1500m à 5 km
500 à 1000 ft
800 à 1500m
200 à 500 ft
< 800m
< 200 ft
Symboles :   Orages  Brouillard  Fortes neiges  Fortes précipitations  Vent > 20 kt
SIGMETs :   Divers  Orages  Givrage  Turbulence  Onde Orograph.  Cendres Volcan.







- Altitude de l'aérodrome : 100 ft


EBDT - Schaffen

DERNIER METAR :
  • 140355Z AUTO 24018G33KT 9999 -RA FEW012/// SCT015/// BKN018/// 03/01 Q0991 WHT

METARs EXPIRÉS :
  • 140325Z AUTO 25018G29KT 9999 -RA FEW010/// BKN013/// BKN020/// 03/01 Q0991 GRN
  • 140307Z AUTO 26018KT 9999 -RA FEW010/// SCT013/// BKN016/// 03/01 Q0991 GRN
  • 140255Z AUTO 26019G30KT 9999 -RA FEW013/// SCT016/// BKN020/// 03/01 Q0990 WHT
  • 140225Z AUTO 24013KT 9999 DZ FEW013/// SCT016/// BKN020/// 04/02 Q0990 WHT
  • 140155Z AUTO 23013G25KT 9999 -RA FEW011/// BKN014/// BKN019/// 04/02 Q0989 GRN
  • 140125Z AUTO 21010KT 9999 -RASN FEW009/// BKN012/// OVC017/// 03/02 Q0989 GRN
  • 140116Z AUTO 24012G23KT 9999 -RASN FEW011/// SCT014/// BKN017/// 03/02 Q0990 GRN
  • 140112Z AUTO 24009G23KT 7000 RA FEW011/// SCT014/// BKN017/// 03/01 Q0989 GRN

TAF TAF EBDT
Valide du 13 à 19h jusqu'au 14 à 07h UTC


131541Z 1319/1407 24012G25KT 8000 SCT012 BKN020
BECMG 1320/1322 26015G30KT 6000 -RA/-SHRA SCT010 BKN017
TEMPO 1322/1404 27018G32KT 3000 RA/SHRA SCT008 BKN015
BECMG 1403/1405 25015G25KT 8000 SCT015
Pas de NOTAMs connus pour ce terrain.
1 SIGMET publié pour la FIR Brussels (EBBU) :
 
Turbulence forte
EBBU SIGMET 05 VALID 140000/140400 EBBR
EBBU BRUSSELS FIR SEV TURB FCST ENTIRE FIR SFC/FL050 STNR WKN=



MET'MAP, la Météo Aéronautique d'un coup d'oeil ! - Copyright ORBIFLY Décembre 2007 - Disclaimer

ORBIFLY MET'MAP TEAM :

Programmation & Développement : Alexandra Zaïnal
Conception & Développement : Baudouin d'Aumeries
Co-Programmation & Développement : Marc-Olivier Méhu
Soutien technique & logistique : Manuel Goepfert

Contact : metmap@orbifly.com




SOURCES & CREDITS :

   NOAA